createdAt,value
2018-12-12T00:00:33.970Z,9.93
2018-12-12T00:03:11.664Z,10.10
2018-12-12T00:05:49.261Z,10.10
2018-12-12T00:08:24.604Z,10.43
2018-12-12T00:11:01.464Z,10.13
2018-12-12T00:13:38.361Z,10.67
2018-12-12T00:16:14.221Z,12.00
2018-12-12T00:18:48.935Z,11.23
2018-12-12T00:21:28.125Z,11.73
2018-12-12T00:24:03.756Z,9.57
2018-12-12T00:26:40.142Z,10.43
2018-12-12T00:29:15.462Z,10.03
2018-12-12T00:31:51.912Z,11.07
2018-12-12T00:34:27.183Z,11.30
2018-12-12T00:37:00.782Z,12.20
2018-12-12T00:39:36.502Z,10.57
2018-12-12T00:42:13.121Z,11.47
2018-12-12T00:44:51.489Z,10.40
2018-12-12T00:47:27.439Z,10.20
2018-12-12T00:50:08.288Z,10.60
2018-12-12T00:52:43.599Z,10.40
2018-12-12T00:55:20.233Z,10.10
2018-12-12T00:57:55.671Z,9.13
2018-12-12T01:00:33.781Z,10.43
2018-12-12T01:03:17.322Z,9.77
2018-12-12T01:05:54.959Z,9.70
2018-12-12T01:08:31.190Z,9.70
2018-12-12T01:11:11.671Z,11.07
2018-12-12T01:13:47.805Z,9.90
2018-12-12T01:16:24.015Z,10.00
2018-12-12T01:19:00.471Z,9.20
2018-12-12T01:21:40.707Z,10.10
2018-12-12T01:24:16.132Z,10.70
2018-12-12T01:26:57.186Z,11.33
2018-12-12T01:29:32.246Z,10.47
2018-12-12T01:32:09.644Z,10.27
2018-12-12T01:34:44.815Z,10.77
2018-12-12T01:37:23.224Z,10.87
2018-12-12T01:39:59.328Z,9.97
2018-12-12T01:42:34.632Z,10.07
2018-12-12T01:45:10.807Z,10.73
2018-12-12T01:47:46.844Z,10.53
2018-12-12T01:50:28.148Z,10.17
2018-12-12T01:53:04.040Z,9.00
2018-12-12T01:55:39.760Z,10.70
2018-12-12T02:01:24.649Z,9.73
2018-12-12T02:03:59.988Z,10.03
2018-12-12T02:06:35.198Z,10.33
2018-12-12T02:09:13.316Z,10.67
2018-12-12T02:11:49.989Z,11.00
2018-12-12T02:14:41.398Z,11.17
2018-12-12T02:17:29.508Z,10.80
2018-12-12T02:20:06.090Z,10.57
2018-12-12T02:22:43.850Z,10.40
2018-12-12T02:25:20.680Z,11.93
2018-12-12T02:28:01.739Z,10.97
2018-12-12T02:30:44.999Z,10.37
2018-12-12T02:33:21.288Z,11.60
2018-12-12T02:35:59.197Z,12.40
2018-12-12T02:38:34.850Z,11.33
2018-12-12T02:41:10.110Z,11.60
2018-12-12T02:43:47.790Z,11.60
2018-12-12T02:46:24.585Z,11.43
2018-12-12T02:49:01.748Z,13.47
2018-12-12T02:51:38.210Z,10.87
2018-12-12T02:54:14.231Z,11.93
2018-12-12T02:56:49.803Z,11.77
2018-12-12T02:59:25.589Z,11.87
2018-12-12T03:02:04.031Z,11.13
2018-12-12T03:04:40.743Z,11.20
2018-12-12T03:07:16.068Z,12.83
2018-12-12T03:09:53.583Z,12.97
2018-12-12T03:12:29.222Z,12.17
2018-12-12T03:15:06.480Z,11.97
2018-12-12T03:17:42.031Z,11.13
2018-12-12T03:20:19.293Z,11.10
2018-12-12T03:22:53.946Z,12.27
2018-12-12T03:25:32.491Z,12.87
2018-12-12T03:28:07.537Z,12.13
2018-12-12T03:30:43.725Z,11.73
2018-12-12T03:33:20.251Z,11.70
2018-12-12T03:35:57.929Z,11.40
2018-12-12T03:41:32.737Z,11.47
2018-12-12T03:44:08.933Z,12.70
2018-12-12T03:46:45.231Z,11.43
2018-12-12T03:49:23.766Z,12.80
2018-12-12T03:51:59.242Z,13.10
2018-12-12T03:54:33.914Z,13.57
2018-12-12T03:57:08.566Z,12.33
2018-12-12T03:59:44.863Z,12.47
2018-12-12T04:02:25.282Z,12.83
2018-12-12T04:05:03.616Z,12.27
2018-12-12T04:07:40.669Z,12.93
2018-12-12T04:10:17.253Z,13.97
2018-12-12T04:12:52.109Z,14.37
2018-12-12T04:15:28.837Z,14.70
2018-12-12T04:18:06.745Z,14.67
2018-12-12T04:20:44.545Z,15.03
2018-12-12T04:23:20.019Z,13.70
2018-12-12T04:25:57.358Z,14.17
2018-12-12T04:28:31.873Z,14.90
2018-12-12T04:31:07.202Z,18.10
2018-12-12T04:33:42.782Z,15.30
2018-12-12T04:36:18.675Z,16.90
2018-12-12T04:38:55.998Z,16.57
2018-12-12T04:41:30.692Z,15.40
2018-12-12T04:44:06.120Z,15.33
2018-12-12T04:46:42.129Z,15.13
2018-12-12T04:49:19.099Z,14.40
2018-12-12T04:52:07.287Z,15.17
2018-12-12T04:54:45.410Z,14.50
2018-12-12T04:57:25.447Z,15.20
2018-12-12T05:00:03.192Z,15.87
2018-12-12T05:02:39.437Z,15.17
2018-12-12T05:05:16.644Z,16.03
2018-12-12T05:07:53.213Z,15.47
2018-12-12T05:10:28.248Z,15.67
2018-12-12T05:13:05.825Z,15.90
2018-12-12T05:15:43.868Z,16.33
2018-12-12T05:18:25.606Z,15.03
2018-12-12T05:21:04.337Z,16.33
2018-12-12T05:23:40.848Z,18.50
2018-12-12T05:26:15.880Z,17.97
2018-12-12T05:29:00.359Z,19.73
2018-12-12T05:31:36.803Z,15.60
2018-12-12T05:34:12.301Z,17.57
2018-12-12T05:36:52.823Z,15.63
2018-12-12T05:39:33.463Z,14.87
2018-12-12T05:42:10.442Z,15.83
2018-12-12T05:44:49.122Z,17.37
2018-12-12T05:47:25.763Z,16.97
2018-12-12T05:50:01.206Z,17.33
2018-12-12T05:52:38.547Z,20.90
2018-12-12T05:55:13.378Z,16.63
2018-12-12T05:57:49.646Z,17.27
2018-12-12T06:00:24.819Z,17.97
2018-12-12T06:03:02.408Z,16.83
2018-12-12T06:05:43.486Z,15.80
2018-12-12T06:08:22.716Z,15.97
2018-12-12T06:10:59.786Z,16.63
2018-12-12T06:13:36.375Z,21.80
2018-12-12T06:16:12.178Z,18.20
2018-12-12T06:18:52.603Z,18.50
2018-12-12T06:21:33.076Z,17.97
2018-12-12T06:24:11.816Z,19.83
2018-12-12T06:26:49.017Z,21.10
2018-12-12T06:29:25.935Z,21.87
2018-12-12T06:32:03.806Z,20.37
2018-12-12T06:34:42.121Z,22.60
2018-12-12T06:37:30.235Z,26.23
2018-12-12T06:40:06.277Z,23.50
2018-12-12T06:42:53.683Z,26.50
2018-12-12T06:45:30.380Z,23.13
2018-12-12T06:48:07.908Z,27.23
2018-12-12T06:50:42.723Z,28.87
2018-12-12T06:53:20.654Z,28.27
2018-12-12T06:55:57.489Z,29.60
2018-12-12T06:58:39.657Z,31.93
2018-12-12T07:01:14.347Z,30.57
2018-12-12T07:03:52.213Z,31.07
2018-12-12T07:06:29.619Z,29.10
2018-12-12T07:09:10.688Z,31.90
2018-12-12T07:11:45.549Z,29.97
2018-12-12T07:14:22.629Z,27.63
2018-12-12T07:16:58.088Z,26.37
2018-12-12T07:19:33.075Z,25.73
2018-12-12T07:22:08.255Z,26.13
2018-12-12T07:24:42.780Z,25.03
2018-12-12T07:27:19.061Z,27.20
2018-12-12T07:29:56.242Z,26.90
2018-12-12T07:32:30.905Z,26.50
2018-12-12T07:35:07.854Z,24.53
2018-12-12T07:37:43.597Z,25.97
2018-12-12T07:40:20.623Z,25.33
2018-12-12T07:45:57.252Z,24.70
2018-12-12T07:51:47.985Z,26.63
2018-12-12T07:57:35.614Z,29.17
2018-12-12T08:00:09.937Z,32.63
2018-12-12T08:02:43.486Z,30.97
2018-12-12T08:05:16.664Z,31.17
2018-12-12T08:07:55.477Z,32.33
2018-12-12T08:10:30.522Z,30.10
2018-12-12T08:13:16.163Z,32.23
2018-12-12T08:15:50.287Z,30.27
2018-12-12T08:18:30.179Z,29.07
2018-12-12T08:21:06.240Z,31.47
2018-12-12T08:23:38.982Z,38.57
2018-12-12T08:26:12.572Z,36.27
2018-12-12T08:28:45.855Z,34.03
2018-12-12T08:31:19.400Z,31.67
2018-12-12T08:33:52.600Z,31.03
2018-12-12T08:36:27.673Z,31.17
2018-12-12T08:39:00.923Z,29.33
2018-12-12T08:41:36.514Z,27.97
2018-12-12T08:44:09.558Z,28.07
2018-12-12T08:46:42.884Z,25.67
2018-12-12T08:49:18.766Z,25.90
2018-12-12T08:51:52.432Z,23.67
2018-12-12T08:54:28.753Z,23.63
2018-12-12T08:57:08.996Z,22.50
2018-12-12T08:59:44.919Z,21.43
2018-12-12T09:02:20.076Z,21.47
2018-12-12T09:04:56.101Z,24.40
2018-12-12T09:07:28.637Z,22.83
2018-12-12T09:10:14.558Z,22.63
2018-12-12T09:12:49.607Z,23.27
2018-12-12T09:15:22.946Z,22.37
2018-12-12T09:17:58.092Z,22.33
2018-12-12T09:20:33.399Z,20.97
2018-12-12T09:23:06.522Z,20.20
2018-12-12T09:25:41.721Z,20.20
2018-12-12T09:28:20.618Z,20.43
2018-12-12T09:30:59.071Z,21.50
2018-12-12T09:33:49.059Z,19.73
2018-12-12T09:36:22.539Z,21.60
2018-12-12T09:38:57.610Z,19.23
2018-12-12T09:41:33.579Z,19.47
2018-12-12T09:44:07.056Z,19.77
2018-12-12T09:46:43.116Z,19.40
2018-12-12T09:49:16.204Z,20.80
2018-12-12T09:51:57.969Z,20.83
2018-12-12T09:54:35.709Z,19.80
2018-12-12T09:57:10.940Z,18.27
2018-12-12T09:59:46.613Z,20.20
2018-12-12T10:02:20.913Z,18.90
2018-12-12T10:04:54.156Z,18.40
2018-12-12T10:07:35.531Z,18.63
2018-12-12T10:10:08.329Z,19.80
2018-12-12T10:12:44.198Z,18.00
2018-12-12T10:15:17.323Z,18.03
2018-12-12T10:17:52.326Z,17.57
2018-12-12T10:20:26.184Z,16.40
2018-12-12T10:23:07.960Z,17.37
2018-12-12T10:25:40.860Z,16.23
2018-12-12T10:28:16.341Z,17.00
2018-12-12T10:30:51.682Z,15.63
2018-12-12T10:33:26.813Z,16.10
2018-12-12T10:36:00.907Z,16.97
2018-12-12T10:38:41.108Z,16.70
2018-12-12T10:41:14.853Z,16.67
2018-12-12T10:43:50.670Z,15.40
2018-12-12T10:46:24.444Z,15.33
2018-12-12T10:49:03.439Z,15.90
2018-12-12T10:51:37.782Z,14.87
2018-12-12T10:54:12.890Z,14.00
2018-12-12T10:56:49.034Z,14.57
2018-12-12T10:59:25.573Z,14.37
2018-12-12T11:02:05.834Z,15.57
2018-12-12T11:04:41.767Z,15.97
2018-12-12T11:07:16.844Z,14.77
2018-12-12T11:09:58.091Z,15.43
2018-12-12T11:12:33.953Z,14.97
2018-12-12T11:15:14.950Z,14.97
2018-12-12T11:17:48.848Z,15.13
2018-12-12T11:20:23.812Z,14.83
2018-12-12T11:22:58.871Z,15.07
2018-12-12T11:25:33.994Z,15.20
2018-12-12T11:28:12.918Z,14.07
2018-12-12T11:30:47.524Z,15.10
2018-12-12T11:33:27.499Z,14.13
2018-12-12T11:36:00.541Z,14.47
2018-12-12T11:38:33.951Z,13.83
2018-12-12T11:41:07.555Z,14.17
2018-12-12T11:43:40.666Z,13.87
2018-12-12T11:46:21.087Z,14.10
2018-12-12T11:48:56.622Z,12.17
2018-12-12T11:51:31.307Z,13.30
2018-12-12T11:54:10.482Z,12.40
2018-12-12T11:56:55.693Z,12.33
2018-12-12T11:59:28.883Z,13.10
2018-12-12T12:02:05.271Z,12.27
2018-12-12T12:04:38.242Z,11.67
2018-12-12T12:07:11.784Z,11.67
2018-12-12T12:09:44.878Z,12.30
2018-12-12T12:15:23.957Z,12.50
2018-12-12T12:17:56.788Z,12.73
2018-12-12T12:20:30.219Z,12.37
2018-12-12T12:23:04.629Z,12.67
2018-12-12T12:25:37.486Z,12.47
2018-12-12T12:28:13.789Z,12.67
2018-12-12T12:30:46.865Z,12.47
2018-12-12T12:33:21.215Z,12.60
2018-12-12T12:35:57.203Z,10.70
2018-12-12T12:38:30.113Z,10.73
2018-12-12T12:41:17.553Z,11.20
2018-12-12T12:43:52.541Z,11.10
2018-12-12T12:46:26.091Z,9.20
2018-12-12T12:48:59.672Z,8.93
2018-12-12T12:51:32.877Z,8.37
2018-12-12T12:54:07.205Z,8.07
2018-12-12T12:56:48.351Z,8.67
2018-12-12T12:59:22.360Z,8.13
2018-12-12T13:02:01.974Z,8.03
2018-12-12T13:04:36.443Z,8.00
2018-12-12T13:07:15.674Z,8.83
2018-12-12T13:09:51.441Z,8.67
2018-12-12T13:12:27.164Z,9.87
2018-12-12T13:15:03.196Z,8.63
2018-12-12T13:17:39.145Z,9.80
2018-12-12T13:20:12.360Z,10.10
2018-12-12T13:22:48.515Z,10.13
2018-12-12T13:25:21.688Z,9.70
2018-12-12T13:27:55.015Z,10.87
2018-12-12T13:30:27.783Z,11.50
2018-12-12T13:33:01.495Z,11.47
2018-12-12T13:35:37.258Z,10.93
2018-12-12T13:38:11.247Z,11.43
2018-12-12T13:40:50.512Z,12.20
2018-12-12T13:43:22.765Z,12.40
2018-12-12T13:45:58.532Z,12.33
2018-12-12T13:48:33.400Z,13.07
2018-12-12T13:51:09.833Z,13.73
2018-12-12T13:53:44.874Z,15.73
2018-12-12T13:56:26.710Z,23.83
2018-12-12T13:59:01.894Z,14.97
2018-12-12T14:01:34.629Z,13.77
2018-12-12T14:07:10.182Z,13.43
2018-12-12T14:09:43.676Z,14.13
2018-12-12T14:12:17.571Z,14.60
2018-12-12T14:14:57.113Z,14.83
2018-12-12T14:17:32.251Z,14.77
2018-12-12T14:20:08.506Z,15.37
2018-12-12T14:22:41.789Z,15.40
2018-12-12T14:25:15.376Z,31.87
2018-12-12T14:27:48.461Z,19.93
2018-12-12T14:30:21.777Z,21.37
2018-12-12T14:32:55.116Z,19.40
2018-12-12T14:35:30.484Z,20.63
2018-12-12T14:38:04.456Z,19.57
2018-12-12T14:40:37.514Z,19.53
2018-12-12T14:43:11.566Z,18.53
2018-12-12T14:45:45.079Z,20.13
2018-12-12T14:48:18.757Z,18.67
2018-12-12T14:50:54.039Z,19.93
2018-12-12T14:53:29.541Z,20.53
2018-12-12T14:56:04.973Z,20.03
2018-12-12T14:58:39.960Z,21.10
2018-12-12T15:01:13.347Z,22.67
2018-12-12T15:03:46.316Z,21.60
2018-12-12T15:06:19.824Z,21.77
2018-12-12T15:08:52.464Z,22.77
2018-12-12T15:11:25.772Z,22.53
2018-12-12T15:14:01.402Z,24.20
2018-12-12T15:16:43.434Z,23.60
2018-12-12T15:19:16.546Z,25.33
2018-12-12T15:21:53.578Z,24.47
2018-12-12T15:24:26.851Z,24.93
2018-12-12T15:26:59.489Z,24.83
2018-12-12T15:29:33.110Z,25.73
2018-12-12T15:32:08.076Z,25.10
2018-12-12T15:34:42.377Z,24.87
2018-12-12T15:37:15.491Z,23.60
2018-12-12T15:39:52.988Z,24.57
2018-12-12T15:42:26.115Z,24.47
2018-12-12T15:44:59.782Z,23.80
2018-12-12T15:47:37.276Z,25.33
2018-12-12T15:50:13.647Z,24.87
2018-12-12T15:52:47.352Z,24.47
2018-12-12T15:55:23.132Z,24.13
2018-12-12T15:57:56.411Z,25.80
2018-12-12T16:00:36.857Z,24.03
2018-12-12T16:03:13.972Z,24.25
2018-12-12T16:05:50.029Z,23.80
2018-12-12T16:08:27.662Z,24.40
2018-12-12T16:14:13.875Z,23.73
2018-12-12T16:16:49.245Z,24.10
2018-12-12T16:19:24.715Z,24.13
2018-12-12T16:21:58.417Z,23.27
2018-12-12T16:24:31.439Z,25.60
2018-12-12T16:27:17.444Z,23.23
2018-12-12T16:29:53.727Z,25.37
2018-12-12T16:32:29.469Z,23.40
2018-12-12T16:35:06.689Z,23.63
2018-12-12T16:40:50.137Z,23.70
2018-12-12T16:46:30.874Z,23.83
2018-12-12T16:49:18.810Z,24.23
2018-12-12T16:51:54.362Z,23.70
2018-12-12T16:54:27.026Z,22.70
2018-12-12T16:57:02.844Z,22.47
2018-12-12T16:59:36.372Z,24.33
2018-12-12T17:02:11.152Z,24.27
2018-12-12T17:04:43.966Z,24.97
2018-12-12T17:07:19.986Z,23.80
2018-12-12T17:09:53.766Z,22.17
2018-12-12T17:12:28.217Z,21.10
2018-12-12T17:15:03.855Z,21.03
2018-12-12T17:17:37.266Z,23.90
2018-12-12T17:20:12.455Z,21.87
2018-12-12T17:22:49.398Z,23.80
2018-12-12T17:25:24.587Z,30.87
2018-12-12T17:28:00.734Z,22.10
2018-12-12T17:30:33.608Z,20.07
2018-12-12T17:33:11.103Z,19.10
2018-12-12T17:35:48.077Z,20.30
2018-12-12T17:38:23.234Z,18.53
2018-12-12T17:40:56.944Z,18.53
2018-12-12T17:43:32.932Z,18.97
2018-12-12T17:46:06.243Z,18.90
2018-12-12T17:48:41.797Z,20.17
2018-12-12T17:51:15.814Z,20.33
2018-12-12T17:53:49.140Z,20.43
2018-12-12T17:56:24.495Z,19.43
2018-12-12T17:59:00.556Z,18.87
2018-12-12T18:01:33.867Z,19.40
2018-12-12T18:04:11.217Z,17.70
2018-12-12T18:06:49.061Z,17.10
2018-12-12T18:09:23.412Z,17.03
2018-12-12T18:11:56.806Z,16.83
2018-12-12T18:14:30.466Z,18.07
2018-12-12T18:17:07.591Z,16.50
2018-12-12T18:19:46.630Z,14.83
2018-12-12T18:22:22.567Z,14.60
2018-12-12T18:24:58.052Z,16.00
2018-12-12T18:27:31.574Z,14.73
2018-12-12T18:30:06.317Z,16.20
2018-12-12T18:32:43.253Z,15.10
2018-12-12T18:35:41.635Z,15.40
2018-12-12T18:38:20.894Z,16.03
2018-12-12T18:40:56.177Z,15.57
2018-12-12T18:43:38.685Z,15.23
2018-12-12T18:46:11.493Z,14.83
2018-12-12T18:48:57.270Z,15.50
2018-12-12T18:51:33.959Z,15.70
2018-12-12T18:57:26.216Z,16.50
2018-12-12T19:00:08.194Z,16.93
2018-12-12T19:02:44.652Z,17.17
2018-12-12T19:05:20.716Z,17.53
2018-12-12T19:08:00.248Z,18.63
2018-12-12T19:10:37.935Z,17.50
2018-12-12T19:13:11.884Z,17.47
2018-12-12T19:15:47.513Z,18.10
2018-12-12T19:18:27.556Z,16.57
2018-12-12T19:21:03.506Z,14.43
2018-12-12T19:23:37.176Z,15.60
2018-12-12T19:26:20.158Z,18.13
2018-12-12T19:29:06.579Z,16.13
2018-12-12T19:31:42.112Z,17.03
2018-12-12T19:34:19.836Z,16.13
2018-12-12T19:36:58.864Z,16.50
2018-12-12T19:39:35.608Z,16.60
2018-12-12T19:45:21.123Z,19.70
2018-12-12T19:51:06.703Z,15.13
2018-12-12T19:53:44.569Z,15.00
2018-12-12T19:56:23.468Z,15.07
2018-12-12T19:59:02.361Z,16.53
2018-12-12T20:01:45.953Z,16.77
2018-12-12T20:04:22.240Z,17.50
2018-12-12T20:10:06.907Z,16.87
2018-12-12T20:12:47.355Z,17.63
2018-12-12T20:18:46.259Z,19.00
2018-12-12T20:24:36.972Z,19.33
2018-12-12T20:30:19.015Z,20.93
2018-12-12T20:32:55.972Z,20.67
2018-12-12T20:38:41.616Z,22.23
2018-12-12T20:41:28.269Z,20.63
2018-12-12T20:44:07.097Z,19.87
2018-12-12T20:49:54.794Z,20.07
2018-12-12T20:52:30.097Z,18.97
2018-12-12T20:55:09.166Z,17.63
2018-12-12T20:57:51.528Z,17.70
2018-12-12T21:00:38.107Z,18.23
2018-12-12T21:03:16.246Z,18.20
2018-12-12T21:05:54.611Z,19.10
2018-12-12T21:08:35.756Z,18.20
2018-12-12T21:11:11.667Z,17.27
2018-12-12T21:19:03.041Z,17.47
2018-12-12T21:21:40.213Z,17.70
2018-12-12T21:24:16.133Z,17.73
2018-12-12T21:26:52.585Z,17.17
2018-12-12T21:29:30.453Z,16.30
2018-12-12T21:32:08.177Z,16.37
2018-12-12T21:34:45.263Z,17.47
2018-12-12T21:37:21.067Z,16.87
2018-12-12T21:39:55.502Z,16.37
2018-12-12T21:42:30.319Z,17.20
2018-12-12T21:45:04.971Z,16.47
2018-12-12T21:47:44.416Z,15.83
2018-12-12T21:53:20.017Z,16.53
2018-12-12T21:55:56.606Z,16.20
2018-12-12T21:58:33.674Z,15.67
2018-12-12T22:01:10.294Z,15.33
2018-12-12T22:03:52.818Z,15.93
2018-12-12T22:06:31.193Z,16.63
2018-12-12T22:09:12.627Z,15.77
2018-12-12T22:11:51.815Z,15.90
2018-12-12T22:14:32.979Z,17.10
2018-12-12T22:17:10.951Z,16.20
2018-12-12T22:19:52.526Z,15.97
2018-12-12T22:27:38.819Z,15.97
2018-12-12T22:30:22.976Z,16.07
2018-12-12T22:36:02.024Z,15.63
2018-12-12T22:41:38.245Z,15.37
2018-12-12T22:44:20.080Z,15.90
2018-12-12T22:46:56.790Z,15.50
2018-12-12T22:49:33.606Z,14.97
2018-12-12T22:52:14.862Z,15.40
2018-12-12T22:55:03.453Z,14.73
2018-12-12T22:57:45.637Z,15.10
2018-12-12T23:00:28.979Z,15.67
2018-12-12T23:03:10.916Z,15.23
2018-12-12T23:05:59.387Z,15.27
2018-12-12T23:08:37.301Z,14.90
2018-12-12T23:11:12.586Z,16.03
2018-12-12T23:13:49.931Z,15.17
2018-12-12T23:16:29.090Z,15.60
2018-12-12T23:19:05.945Z,15.90
2018-12-12T23:21:41.060Z,14.67
2018-12-12T23:24:17.927Z,14.57
2018-12-12T23:29:53.830Z,15.23
2018-12-12T23:32:30.561Z,14.87
2018-12-12T23:35:05.616Z,15.80
2018-12-12T23:37:43.439Z,15.33
2018-12-12T23:40:18.226Z,15.57
2018-12-12T23:43:01.021Z,16.43
2018-12-12T23:45:37.570Z,15.10
2018-12-12T23:48:12.249Z,15.60
2018-12-12T23:50:49.247Z,15.10
2018-12-12T23:53:23.149Z,15.37
2018-12-12T23:56:00.621Z,15.73
2018-12-12T23:58:34.820Z,15.70
